Terminal Aerodrome Forecast
Issued by NWS

Home | Current Version | Previous Version | Text Only | Print | Product List | Glossary On
Versions: 1 2 3 4 5 6 7 8 9 10 11 12 13 14 15 16 17 18 19 20
000
FTUS45 KBOI 041313 AAB
TAFMYL
TAF AMD
KMYL 041313Z 0413/0512 15008KT 1SM -SN BR OVC010
     FM041400 16009KT 1SM -SN BR OVC007
     FM050100 29007KT 2SM -SHSN SCT007 OVC015
     FM050400 33006KT 6SM BR VCSH SCT015 OVC035=

USA.gov is the U.S. government's official web portal to all federal, state and local government web resources and services.